createdAt,value
2022-08-10T00:00:24.597Z,75018.69
2022-08-10T00:01:58.444Z,75022.66
2022-08-10T00:03:31.703Z,75012.75
2022-08-10T00:05:05.587Z,75006.84
2022-08-10T00:06:38.941Z,75012.75
2022-08-10T00:08:18.318Z,75014.75
2022-08-10T00:09:57.219Z,75014.75
2022-08-10T00:11:33.579Z,75018.69
2022-08-10T00:13:06.920Z,75018.69
2022-08-10T00:14:40.298Z,75026.59
2022-08-10T00:16:16.660Z,75028.56
2022-08-10T00:17:50.575Z,75024.63
2022-08-10T00:19:23.872Z,75030.56
2022-08-10T00:21:00.448Z,75034.50
2022-08-10T00:22:34.012Z,75042.41
2022-08-10T00:24:08.172Z,75042.41
2022-08-10T00:25:43.666Z,75046.38
2022-08-10T00:28:02.114Z,75046.38
2022-08-10T00:29:16.288Z,75058.22
2022-08-10T00:30:49.456Z,75072.06
2022-08-10T00:32:24.304Z,75066.13
2022-08-10T00:34:01.753Z,75058.22
2022-08-10T00:35:37.943Z,75052.31
2022-08-10T00:37:11.275Z,75058.22
2022-08-10T00:38:44.693Z,75054.28
2022-08-10T00:40:17.981Z,75054.28
2022-08-10T00:42:13.152Z,75054.28
2022-08-10T00:43:46.312Z,75052.31
2022-08-10T00:45:19.761Z,75048.34
2022-08-10T00:46:53.294Z,75048.34
2022-08-10T00:48:28.080Z,75050.31
2022-08-10T00:50:02.025Z,75046.38
2022-08-10T00:51:40.327Z,75048.34
2022-08-10T00:53:22.430Z,75038.47
2022-08-10T00:54:57.007Z,75034.50
2022-08-10T00:57:14.399Z,75032.53
2022-08-10T00:58:26.967Z,75020.66
2022-08-10T01:00:00.990Z,75020.66
2022-08-10T01:02:08.946Z,75010.78
2022-08-10T01:04:54.258Z,75008.81
2022-08-10T01:05:22.821Z,75006.84
2022-08-10T01:07:01.246Z,75000.91
2022-08-10T01:08:34.582Z,74993.00
2022-08-10T01:10:17.067Z,74967.31
2022-08-10T01:12:37.657Z,74963.34
2022-08-10T01:13:52.709Z,74963.34
2022-08-10T01:15:31.942Z,74957.41
2022-08-10T01:17:50.357Z,74939.63
2022-08-10T01:19:42.651Z,74939.63
2022-08-10T01:21:34.692Z,74943.59
2022-08-10T01:23:08.758Z,74945.56
2022-08-10T01:24:59.379Z,74937.66
2022-08-10T01:26:47.744Z,74919.88
2022-08-10T01:28:38.813Z,74900.09
2022-08-10T01:30:14.037Z,74904.06
2022-08-10T01:31:52.867Z,74904.06
2022-08-10T01:33:28.669Z,74906.03
2022-08-10T01:35:29.459Z,74894.16
2022-08-10T01:37:13.992Z,74868.47
2022-08-10T01:38:49.527Z,74848.72
2022-08-10T01:40:25.628Z,74852.66
2022-08-10T01:42:04.311Z,74828.94
2022-08-10T01:43:44.830Z,74809.19
2022-08-10T01:45:21.790Z,74767.66
2022-08-10T01:47:22.208Z,74761.75
2022-08-10T01:48:58.112Z,74759.75
2022-08-10T01:50:59.903Z,74741.97
2022-08-10T01:52:32.144Z,74728.16
2022-08-10T01:54:12.931Z,74688.63
2022-08-10T01:55:47.701Z,74672.81
2022-08-10T01:57:25.306Z,74631.28
2022-08-10T01:59:04.268Z,74631.28
2022-08-10T02:00:40.350Z,74639.19
2022-08-10T02:02:16.111Z,74627.34
2022-08-10T02:04:03.552Z,74615.47
2022-08-10T02:05:48.089Z,74603.63
2022-08-10T02:07:24.739Z,74589.78
2022-08-10T02:09:06.235Z,74540.38
2022-08-10T02:10:41.149Z,74502.84
2022-08-10T02:12:36.590Z,74451.44
2022-08-10T02:14:10.985Z,74457.38
2022-08-10T02:16:02.254Z,74441.56
2022-08-10T02:17:57.442Z,74433.66
2022-08-10T02:19:33.820Z,74445.50
2022-08-10T02:21:08.931Z,74441.56
2022-08-10T02:22:44.582Z,74415.88
2022-08-10T02:24:22.093Z,74431.69
2022-08-10T02:25:57.826Z,74425.75
2022-08-10T02:27:34.954Z,74406.00
2022-08-10T02:29:09.307Z,74324.97
2022-08-10T02:30:42.482Z,74328.91
2022-08-10T02:32:36.454Z,74289.38
2022-08-10T02:34:13.891Z,74271.59
2022-08-10T02:35:54.120Z,74241.97
2022-08-10T02:37:30.448Z,74216.28
2022-08-10T02:39:05.381Z,74243.94
2022-08-10T02:45:01.078Z,74188.59
2022-08-10T02:45:27.061Z,74192.56
2022-08-10T02:45:29.303Z,74123.38
2022-08-10T02:46:55.520Z,74077.94
2022-08-10T02:48:38.138Z,74042.38
2022-08-10T02:50:27.920Z,74002.84
2022-08-10T02:52:08.910Z,73975.19
2022-08-10T02:53:55.013Z,73921.81
2022-08-10T02:55:36.314Z,73900.09
2022-08-10T02:57:25.602Z,73971.22
2022-08-10T02:59:06.284Z,73983.09
2022-08-10T03:00:42.697Z,73959.38
2022-08-10T03:02:36.349Z,73892.19
2022-08-10T03:04:17.654Z,73840.81
2022-08-10T03:05:54.526Z,73919.84
2022-08-10T03:07:42.839Z,73929.72
2022-08-10T03:09:20.322Z,73896.13
2022-08-10T03:10:54.239Z,73828.94
2022-08-10T03:12:38.248Z,73825.00
2022-08-10T03:14:12.649Z,73878.34
2022-08-10T03:15:47.124Z,73902.06
2022-08-10T03:17:20.824Z,73787.44
2022-08-10T03:19:00.160Z,73753.84
2022-08-10T03:20:39.699Z,73809.19
2022-08-10T03:22:15.194Z,73730.16
2022-08-10T03:23:49.853Z,73759.78
2022-08-10T03:25:24.416Z,73702.47
2022-08-10T03:26:57.907Z,73777.56
2022-08-10T03:28:33.140Z,73773.63
2022-08-10T03:30:28.459Z,73785.47
2022-08-10T03:32:01.636Z,73708.41
2022-08-10T03:33:36.438Z,73732.13
2022-08-10T03:35:10.602Z,73781.53
2022-08-10T03:36:45.039Z,73736.06
2022-08-10T03:38:19.515Z,73659.00
2022-08-10T03:39:56.047Z,73548.38
2022-08-10T03:41:37.253Z,73603.69
2022-08-10T03:43:14.445Z,73560.22
2022-08-10T03:44:50.466Z,73550.34
2022-08-10T03:46:25.679Z,73542.44
2022-08-10T03:48:02.159Z,73479.22
2022-08-10T03:49:39.486Z,73528.59
2022-08-10T03:51:14.015Z,73506.88
2022-08-10T03:52:49.777Z,73583.94
2022-08-10T03:54:23.662Z,73607.63
2022-08-10T03:56:29.506Z,73631.34
2022-08-10T03:57:51.071Z,73524.66
2022-08-10T03:59:24.684Z,73544.41
2022-08-10T04:00:58.268Z,73497.00
2022-08-10T04:02:44.496Z,73536.50
2022-08-10T04:04:26.150Z,73427.84
2022-08-10T04:06:01.620Z,73463.41
2022-08-10T04:07:36.865Z,73497.00
2022-08-10T04:09:10.278Z,73481.19
2022-08-10T04:10:43.872Z,73453.53
2022-08-10T04:12:16.842Z,73516.75
2022-08-10T04:13:50.615Z,73443.63
2022-08-10T04:15:26.924Z,73465.38
2022-08-10T04:17:00.483Z,73500.94
2022-08-10T04:18:34.262Z,73487.09
2022-08-10T04:20:11.063Z,73578.00
2022-08-10T04:21:46.783Z,73540.47
2022-08-10T04:23:24.202Z,73498.97
2022-08-10T04:25:04.265Z,73493.03
2022-08-10T04:26:38.109Z,73493.03
2022-08-10T04:28:11.845Z,73485.13
2022-08-10T04:29:45.786Z,73498.97
2022-08-10T04:31:20.534Z,73558.25
2022-08-10T04:32:55.094Z,73453.53
2022-08-10T04:34:32.340Z,73374.47
2022-08-10T04:36:09.325Z,73303.34
2022-08-10T04:37:47.228Z,73461.41
2022-08-10T04:39:22.537Z,73445.63
2022-08-10T04:40:59.299Z,73356.69
2022-08-10T04:42:38.115Z,73487.09
2022-08-10T04:44:14.480Z,73508.84
2022-08-10T04:45:51.892Z,73386.34
2022-08-10T04:48:00.520Z,73506.88
2022-08-10T04:49:54.114Z,73459.44
2022-08-10T04:51:19.750Z,73437.72
2022-08-10T04:52:53.420Z,73406.09
2022-08-10T04:54:27.150Z,73473.28
2022-08-10T04:56:06.345Z,73520.69
2022-08-10T04:57:42.141Z,73477.22
2022-08-10T04:59:15.786Z,73425.84
2022-08-10T05:00:49.636Z,73392.28
2022-08-10T05:02:29.681Z,73419.94
2022-08-10T05:04:34.592Z,73362.63
2022-08-10T05:06:05.302Z,73307.31
2022-08-10T05:07:54.152Z,73190.75
2022-08-10T05:09:30.222Z,73190.75
2022-08-10T05:11:03.284Z,73222.34
2022-08-10T05:12:38.720Z,73346.81
2022-08-10T05:14:12.287Z,73279.66
2022-08-10T05:15:46.467Z,73271.75
2022-08-10T05:17:20.584Z,73242.09
2022-08-10T05:18:54.171Z,73147.28
2022-08-10T05:20:28.273Z,73012.94
2022-08-10T05:22:04.565Z,73062.31
2022-08-10T05:23:38.440Z,73076.16
2022-08-10T05:25:13.475Z,73192.72
2022-08-10T05:26:55.110Z,73315.22
2022-08-10T05:28:35.247Z,73299.41
2022-08-10T05:30:10.198Z,73269.78
2022-08-10T05:31:49.208Z,73285.56
2022-08-10T05:33:22.676Z,73287.56
2022-08-10T05:34:59.661Z,73188.75
2022-08-10T05:36:34.595Z,73129.50
2022-08-10T05:38:14.316Z,73050.47
2022-08-10T05:39:50.151Z,72914.16
2022-08-10T05:41:24.321Z,73040.59
2022-08-10T05:42:57.731Z,73088.00
2022-08-10T05:44:32.148Z,73123.56
2022-08-10T05:46:19.850Z,73143.31
2022-08-10T05:48:54.136Z,73070.22
2022-08-10T05:49:54.507Z,72955.63
2022-08-10T05:51:31.080Z,72892.41
2022-08-10T05:54:03.363Z,72979.34
2022-08-10T05:55:02.623Z,72924.03
2022-08-10T05:56:56.058Z,72977.38
2022-08-10T05:58:31.320Z,72975.38
2022-08-10T06:00:36.318Z,72910.19
2022-08-10T06:02:30.988Z,72995.16
2022-08-10T06:03:59.278Z,73046.50
2022-08-10T06:05:35.201Z,72981.31
2022-08-10T06:07:11.687Z,72955.63
2022-08-10T06:08:47.128Z,72943.78
2022-08-10T06:10:31.601Z,72987.25
2022-08-10T06:12:23.789Z,72924.03
2022-08-10T06:14:19.543Z,72995.16
2022-08-10T06:16:03.533Z,72912.19
2022-08-10T06:17:37.957Z,72922.06
2022-08-10T06:19:14.749Z,72927.97
2022-08-10T06:20:53.173Z,73145.28
2022-08-10T06:22:27.487Z,73082.06
2022-08-10T06:24:02.348Z,72943.78
2022-08-10T06:26:09.111Z,72983.28
2022-08-10T06:27:34.651Z,73048.50
2022-08-10T06:29:10.780Z,73034.66
2022-08-10T06:30:50.931Z,73062.31
2022-08-10T06:32:30.396Z,72945.75
2022-08-10T06:34:05.150Z,72900.31
2022-08-10T06:35:40.015Z,72993.19
2022-08-10T06:37:14.951Z,73054.41
2022-08-10T06:38:48.991Z,73133.44
2022-08-10T06:40:22.558Z,73103.81
2022-08-10T06:42:15.546Z,73169.00
2022-08-10T06:44:16.683Z,73246.06
2022-08-10T06:46:07.622Z,73226.31
2022-08-10T06:47:56.131Z,73263.84
2022-08-10T06:49:33.236Z,73253.97
2022-08-10T06:51:14.370Z,73196.66
2022-08-10T06:52:50.815Z,73180.84
2022-08-10T06:54:26.629Z,73261.88
2022-08-10T06:56:02.483Z,73176.91
2022-08-10T06:57:37.709Z,73224.31
2022-08-10T06:59:21.670Z,73313.25
2022-08-10T07:00:57.258Z,73246.06
2022-08-10T07:02:37.601Z,73248.03
2022-08-10T07:04:38.669Z,73208.53
2022-08-10T07:06:13.950Z,73184.81
2022-08-10T07:07:48.543Z,73228.28
2022-08-10T07:09:22.539Z,73311.25
2022-08-10T07:10:56.558Z,73259.88
2022-08-10T07:12:31.391Z,73291.50
2022-08-10T07:14:15.858Z,73236.19
2022-08-10T07:15:59.556Z,73305.34
2022-08-10T07:17:39.093Z,73214.44
2022-08-10T07:19:13.865Z,73200.63
2022-08-10T07:20:48.033Z,73277.66
2022-08-10T07:23:27.060Z,73176.91
2022-08-10T07:24:19.781Z,73273.72
2022-08-10T07:25:53.878Z,73259.88
2022-08-10T07:27:28.049Z,73319.16
2022-08-10T07:29:52.784Z,73277.66
2022-08-10T07:31:54.448Z,73303.34
2022-08-10T07:33:10.495Z,73285.56
2022-08-10T07:34:45.517Z,73216.44
2022-08-10T07:36:20.845Z,73153.19
2022-08-10T07:37:55.234Z,73169.00
2022-08-10T07:39:59.586Z,73174.94
2022-08-10T07:41:31.299Z,73216.44
2022-08-10T07:43:05.887Z,73321.13
2022-08-10T07:44:42.142Z,73287.56
2022-08-10T07:46:16.089Z,73279.66
2022-08-10T07:47:54.864Z,73222.34
2022-08-10T07:49:31.801Z,73192.72
2022-08-10T07:51:06.246Z,73161.09
2022-08-10T07:52:40.605Z,73127.53
2022-08-10T07:54:16.603Z,73129.50
2022-08-10T07:56:07.449Z,73170.97
2022-08-10T07:57:45.319Z,73210.50
2022-08-10T07:59:21.381Z,73250.00
2022-08-10T08:00:54.683Z,73212.47
2022-08-10T08:02:49.325Z,73277.66
2022-08-10T08:04:24.922Z,73200.63
2022-08-10T08:06:02.870Z,73307.31
2022-08-10T08:07:39.432Z,73305.34
2022-08-10T08:09:12.663Z,73232.22
2022-08-10T08:10:46.915Z,73210.50
2022-08-10T08:12:20.362Z,73224.31
2022-08-10T08:13:54.577Z,73248.03
2022-08-10T08:16:17.456Z,73291.50
2022-08-10T08:17:22.763Z,73224.31
2022-08-10T08:19:27.264Z,73184.81
2022-08-10T08:21:01.761Z,73244.09
2022-08-10T08:24:09.317Z,73265.81
2022-08-10T08:24:34.135Z,73327.06
2022-08-10T08:26:08.080Z,73323.13
2022-08-10T08:27:42.155Z,73293.47
2022-08-10T08:29:21.669Z,73244.09
2022-08-10T08:30:55.871Z,73226.31
2022-08-10T08:32:31.090Z,73252.00
2022-08-10T08:34:05.646Z,73319.16
2022-08-10T08:35:39.151Z,73327.06
2022-08-10T08:38:29.641Z,73336.94
2022-08-10T08:39:09.116Z,73323.13
2022-08-10T08:40:45.329Z,73242.09
2022-08-10T08:42:27.573Z,73242.09
2022-08-10T08:44:15.976Z,73289.53
2022-08-10T08:46:00.723Z,73210.50
2022-08-10T08:48:04.798Z,73212.47
2022-08-10T08:50:09.558Z,73248.03
2022-08-10T08:52:07.421Z,73200.63
2022-08-10T08:54:01.113Z,73196.66
2022-08-10T08:56:03.808Z,73236.19
2022-08-10T08:57:56.087Z,73214.44
2022-08-10T08:59:36.319Z,73234.22
2022-08-10T09:01:21.603Z,73311.25
2022-08-10T09:03:05.011Z,73315.22
2022-08-10T09:04:48.134Z,73323.13
2022-08-10T09:06:30.391Z,73338.91
2022-08-10T09:08:22.312Z,73297.44
2022-08-10T09:10:15.394Z,73321.13
2022-08-10T09:12:03.572Z,73319.16
2022-08-10T09:13:59.570Z,73287.56
2022-08-10T09:15:39.448Z,73299.41
2022-08-10T09:17:19.727Z,73277.66
2022-08-10T09:18:53.027Z,73267.78
2022-08-10T09:20:26.052Z,73285.56
2022-08-10T09:22:17.138Z,73259.88
2022-08-10T09:24:01.456Z,73267.78
2022-08-10T09:25:37.806Z,73240.13
2022-08-10T09:27:21.155Z,73252.00
2022-08-10T09:29:11.840Z,73208.53
2022-08-10T09:31:18.891Z,73180.84
2022-08-10T09:36:14.638Z,73170.97
2022-08-10T09:36:21.067Z,73230.25
2022-08-10T09:36:58.436Z,73163.09
2022-08-10T09:38:55.324Z,73157.16
2022-08-10T09:41:00.416Z,73133.44
2022-08-10T09:42:25.661Z,73169.00
2022-08-10T09:44:04.928Z,73240.13
2022-08-10T09:45:49.114Z,73301.38
2022-08-10T09:48:01.024Z,73281.63
2022-08-10T09:49:55.770Z,73303.34
2022-08-10T09:51:47.329Z,73263.84
2022-08-10T09:53:40.149Z,73250.00
2022-08-10T09:55:18.112Z,73259.88
2022-08-10T09:57:17.818Z,73279.66
2022-08-10T09:58:51.935Z,73252.00
2022-08-10T10:00:56.433Z,73299.41
2022-08-10T10:02:52.792Z,73299.41
2022-08-10T10:04:58.640Z,73234.22
2022-08-10T10:06:55.473Z,73218.41
2022-08-10T10:08:58.275Z,73157.16
2022-08-10T10:10:53.177Z,73196.66
2022-08-10T10:12:56.438Z,73176.91
2022-08-10T10:15:00.199Z,73212.47
2022-08-10T10:16:47.745Z,73204.56
2022-08-10T10:18:22.175Z,73279.66
2022-08-10T10:20:10.092Z,73253.97
2022-08-10T10:22:04.330Z,73216.44
2022-08-10T10:24:20.408Z,73204.56
2022-08-10T10:26:18.360Z,73184.81
2022-08-10T10:28:13.892Z,73153.19
2022-08-10T10:30:08.521Z,73151.22
2022-08-10T10:31:56.245Z,73103.81
2022-08-10T10:33:46.696Z,73115.66
2022-08-10T10:35:27.947Z,73167.03
2022-08-10T10:37:01.876Z,73117.63
2022-08-10T10:38:37.009Z,73145.28
2022-08-10T10:40:13.268Z,73178.88
2022-08-10T10:42:03.714Z,73192.72
2022-08-10T10:43:57.038Z,73194.69
2022-08-10T10:45:42.021Z,73200.63
2022-08-10T10:47:36.026Z,73188.75
2022-08-10T10:49:22.315Z,73202.59
2022-08-10T10:51:10.846Z,73289.53
2022-08-10T10:52:53.472Z,73325.09
2022-08-10T10:54:50.117Z,73346.81
2022-08-10T10:56:46.930Z,73338.91
2022-08-10T10:58:28.601Z,73317.19
2022-08-10T11:00:10.250Z,73321.13
2022-08-10T11:02:02.726Z,73327.06
2022-08-10T11:03:37.663Z,73327.06
2022-08-10T11:05:29.741Z,73334.97
2022-08-10T11:07:16.513Z,73305.34
2022-08-10T11:09:06.058Z,73327.06
2022-08-10T11:10:47.318Z,73315.22
2022-08-10T11:12:28.712Z,73293.47
2022-08-10T11:14:29.231Z,73269.78
2022-08-10T11:16:46.436Z,73265.81
2022-08-10T11:20:29.864Z,73368.56
2022-08-10T11:22:23.634Z,73358.69
2022-08-10T11:24:48.123Z,73356.69
2022-08-10T11:26:03.786Z,73334.97
2022-08-10T11:27:50.923Z,73321.13
2022-08-10T11:29:35.659Z,73329.03
2022-08-10T11:31:21.024Z,73327.06
2022-08-10T11:33:13.875Z,73356.69
2022-08-10T11:35:11.140Z,73334.97
2022-08-10T11:37:02.229Z,73338.91
2022-08-10T11:39:13.980Z,73346.81
2022-08-10T11:40:48.597Z,73380.41
2022-08-10T11:42:33.301Z,73378.44
2022-08-10T11:44:12.245Z,73380.41
2022-08-10T11:45:52.470Z,73398.19
2022-08-10T11:47:35.055Z,73390.28
2022-08-10T11:49:08.219Z,73421.91
2022-08-10T11:50:47.373Z,73404.13
2022-08-10T11:52:34.158Z,73406.09
2022-08-10T11:54:15.166Z,73429.81
2022-08-10T11:55:58.411Z,73429.81
2022-08-10T11:57:53.472Z,73427.84
2022-08-10T11:59:46.724Z,73445.63
2022-08-10T12:01:23.426Z,73457.47
2022-08-10T12:02:58.979Z,73469.31
2022-08-10T12:04:33.803Z,73473.28
2022-08-10T12:06:13.961Z,73471.31
2022-08-10T12:10:06.001Z,73461.41
2022-08-10T12:10:10.243Z,73473.28
2022-08-10T12:11:37.928Z,73479.22
2022-08-10T12:13:18.602Z,73481.19
2022-08-10T12:14:58.907Z,73483.16
2022-08-10T12:16:35.556Z,73485.13
2022-08-10T12:18:14.676Z,73489.09
2022-08-10T12:20:08.912Z,73493.03
2022-08-10T12:21:45.837Z,73497.00
2022-08-10T12:23:39.664Z,73491.06
2022-08-10T12:25:49.689Z,73489.09
2022-08-10T12:27:20.704Z,73473.28
2022-08-10T12:29:02.522Z,73463.41
2022-08-10T12:30:38.923Z,73459.44
2022-08-10T12:32:31.745Z,73451.53
2022-08-10T12:34:21.486Z,73451.53
2022-08-10T12:36:18.391Z,73439.69
2022-08-10T12:38:10.468Z,73449.56
2022-08-10T12:39:47.517Z,73463.41
2022-08-10T12:41:41.622Z,73455.50
2022-08-10T12:44:07.162Z,73443.63
2022-08-10T12:45:50.527Z,73445.63
2022-08-10T12:47:44.797Z,73429.81
2022-08-10T12:49:18.032Z,73410.06
2022-08-10T12:51:30.495Z,73412.03
2022-08-10T12:53:07.245Z,73406.09
2022-08-10T12:54:42.333Z,73402.16
2022-08-10T12:56:23.799Z,73394.25
2022-08-10T12:57:58.770Z,73437.72
2022-08-10T12:59:32.904Z,73465.38
2022-08-10T13:01:21.262Z,73491.06
2022-08-10T13:02:55.405Z,73493.03
2022-08-10T13:04:37.851Z,73540.47
2022-08-10T13:06:11.703Z,73536.50
2022-08-10T13:08:24.432Z,73556.25
2022-08-10T13:09:55.942Z,73552.31
2022-08-10T13:12:35.090Z,73536.50
2022-08-10T13:13:28.155Z,73550.34
2022-08-10T13:15:45.844Z,73554.28
2022-08-10T13:17:10.590Z,73570.09
2022-08-10T13:18:46.923Z,73572.06
2022-08-10T13:20:31.722Z,73562.19
2022-08-10T13:22:06.694Z,73572.06
2022-08-10T13:23:59.639Z,73574.03
2022-08-10T13:25:40.002Z,73589.84
2022-08-10T13:27:25.712Z,73599.72
2022-08-10T13:29:01.931Z,73597.75
2022-08-10T13:30:37.867Z,73595.78
2022-08-10T13:32:14.994Z,73593.81
2022-08-10T13:34:40.107Z,73597.75
2022-08-10T13:35:45.664Z,73576.03
2022-08-10T13:37:21.062Z,73566.16
2022-08-10T13:38:56.714Z,73558.25
2022-08-10T13:40:31.852Z,73558.25
2022-08-10T13:42:06.722Z,73536.50
2022-08-10T13:43:49.499Z,73526.63
2022-08-10T13:45:24.793Z,73552.31
2022-08-10T13:46:58.230Z,73556.25
2022-08-10T13:48:32.683Z,73536.50
2022-08-10T13:50:10.759Z,73532.56
2022-08-10T13:51:54.227Z,73528.59
2022-08-10T13:53:33.403Z,73544.41
2022-08-10T13:55:14.328Z,73538.47
2022-08-10T13:56:48.287Z,73544.41
2022-08-10T13:58:33.111Z,73556.25
2022-08-10T14:00:34.193Z,73554.28
2022-08-10T14:02:05.796Z,73546.38
2022-08-10T14:03:40.447Z,73548.38
2022-08-10T14:05:15.002Z,73536.50
2022-08-10T14:06:56.034Z,73540.47
2022-08-10T14:08:32.145Z,73548.38
2022-08-10T14:10:10.476Z,73542.44
2022-08-10T14:11:47.074Z,73540.47
2022-08-10T14:13:21.264Z,73558.25
2022-08-10T14:14:56.008Z,73548.38
2022-08-10T14:16:30.343Z,73548.38
2022-08-10T14:18:05.346Z,73546.38
2022-08-10T14:19:43.404Z,73554.28
2022-08-10T14:21:21.736Z,73564.16
2022-08-10T14:23:06.343Z,73564.16
2022-08-10T14:24:40.916Z,73564.16
2022-08-10T14:26:18.943Z,73579.97
2022-08-10T14:28:02.476Z,73576.03
2022-08-10T14:29:48.923Z,73568.13
2022-08-10T14:31:25.306Z,73591.84
2022-08-10T14:33:05.759Z,73595.78
2022-08-10T14:36:15.658Z,73605.66
2022-08-10T14:36:43.150Z,73611.59
2022-08-10T14:38:21.468Z,73609.63
2022-08-10T14:40:18.220Z,73619.50
2022-08-10T14:42:01.775Z,73613.56
2022-08-10T14:43:44.151Z,73623.44
2022-08-10T14:45:30.792Z,73623.44
2022-08-10T14:47:53.999Z,73617.53
2022-08-10T14:49:01.342Z,73627.41
2022-08-10T14:50:58.606Z,73631.34
2022-08-10T14:52:44.252Z,73639.25
2022-08-10T14:54:23.466Z,73637.28
2022-08-10T14:56:02.969Z,73645.19
2022-08-10T14:58:19.481Z,73647.16
2022-08-10T15:00:24.188Z,73655.06
2022-08-10T15:02:01.395Z,73684.69
2022-08-10T15:03:59.091Z,73694.59
2022-08-10T15:05:26.651Z,73710.38
2022-08-10T15:07:12.988Z,73734.09
2022-08-10T15:08:47.484Z,73753.84
2022-08-10T15:10:23.377Z,73767.69
2022-08-10T15:12:15.069Z,73777.56
2022-08-10T15:14:14.780Z,73775.59
2022-08-10T15:16:11.332Z,73807.22
2022-08-10T15:17:48.300Z,73821.03
2022-08-10T15:20:03.511Z,73848.72
2022-08-10T15:21:22.168Z,73856.63
2022-08-10T15:23:31.265Z,73870.44
2022-08-10T15:25:17.944Z,73886.25
2022-08-10T15:26:57.691Z,73884.28
2022-08-10T15:29:05.913Z,73890.19
2022-08-10T15:30:31.847Z,73890.19
2022-08-10T15:32:25.931Z,73900.09
2022-08-10T15:34:21.853Z,73911.94
2022-08-10T15:36:22.470Z,73931.69
2022-08-10T15:38:02.125Z,73935.66
2022-08-10T15:40:25.569Z,73955.41
2022-08-10T15:41:57.690Z,73969.25
2022-08-10T15:43:37.023Z,73983.09
2022-08-10T15:45:21.464Z,74002.84
2022-08-10T15:47:02.962Z,74022.59
2022-08-10T15:48:48.167Z,74048.28
2022-08-10T15:50:27.162Z,74062.13
2022-08-10T15:52:11.842Z,74070.03
2022-08-10T15:54:12.243Z,74072.00
2022-08-10T15:55:45.908Z,74073.97
2022-08-10T15:57:26.031Z,74068.06
2022-08-10T15:59:07.990Z,74066.06
2022-08-10T16:00:47.005Z,74073.97
2022-08-10T16:02:25.038Z,74075.97
2022-08-10T16:04:10.381Z,74085.84
2022-08-10T16:06:01.483Z,74085.84
2022-08-10T16:07:46.000Z,74095.72
2022-08-10T16:10:23.155Z,74099.66
2022-08-10T16:11:25.551Z,74105.59
2022-08-10T16:13:00.974Z,74109.56
2022-08-10T16:14:39.526Z,74111.53
2022-08-10T16:16:14.721Z,74119.44
2022-08-10T16:17:54.534Z,74125.38
2022-08-10T16:19:30.430Z,74135.25
2022-08-10T16:21:06.350Z,74141.16
2022-08-10T16:22:40.944Z,74149.06
2022-08-10T16:24:16.346Z,74158.97
2022-08-10T16:25:53.507Z,74180.69
2022-08-10T16:27:32.680Z,74188.59
2022-08-10T16:29:08.271Z,74196.50
2022-08-10T16:30:54.094Z,74212.31
2022-08-10T16:32:32.571Z,74224.19
2022-08-10T16:34:08.883Z,74249.88
2022-08-10T16:35:48.126Z,74265.69
2022-08-10T16:37:24.195Z,74271.59
2022-08-10T16:38:58.482Z,74273.59
2022-08-10T16:40:32.462Z,74295.31
2022-08-10T16:42:10.257Z,74317.06
2022-08-10T16:43:48.390Z,74332.88
2022-08-10T16:45:24.851Z,74348.69
2022-08-10T16:47:01.893Z,74354.59
2022-08-10T16:48:49.975Z,74366.47
2022-08-10T16:50:28.909Z,74374.38
2022-08-10T16:52:03.430Z,74390.19
2022-08-10T16:53:39.365Z,74402.03
2022-08-10T16:55:48.489Z,74398.09
2022-08-10T16:57:27.966Z,74406.00
2022-08-10T16:59:03.221Z,74413.91
2022-08-10T17:00:37.260Z,74417.84
2022-08-10T17:02:15.055Z,74417.84
2022-08-10T17:04:06.861Z,74406.00
2022-08-10T17:06:09.926Z,74413.91
2022-08-10T17:07:47.423Z,74421.81
2022-08-10T17:09:26.299Z,74433.66
2022-08-10T17:11:00.345Z,74433.66
2022-08-10T17:12:34.300Z,74449.47
2022-08-10T17:14:09.828Z,74457.38
2022-08-10T17:15:50.010Z,74453.41
2022-08-10T17:17:27.007Z,74455.41
2022-08-10T17:19:00.853Z,74463.31
2022-08-10T17:20:39.459Z,74461.31
2022-08-10T17:22:18.101Z,74465.28
2022-08-10T17:23:53.543Z,74463.31
2022-08-10T17:25:48.709Z,74459.34
2022-08-10T17:28:05.030Z,74463.31
2022-08-10T17:29:58.058Z,74465.28
2022-08-10T17:31:23.505Z,74465.28
2022-08-10T17:33:03.435Z,74469.22
2022-08-10T17:34:45.037Z,74463.31
2022-08-10T17:36:18.723Z,74473.19
2022-08-10T17:38:04.145Z,74487.03
2022-08-10T17:39:46.190Z,74485.03
2022-08-10T17:41:24.511Z,74485.03
2022-08-10T17:42:58.853Z,74487.03
2022-08-10T17:44:39.417Z,74489.00
2022-08-10T17:46:14.249Z,74481.09
2022-08-10T17:48:01.403Z,74494.94
2022-08-10T17:49:38.332Z,74504.81
2022-08-10T17:51:13.190Z,74510.75
2022-08-10T17:52:46.768Z,74504.81
2022-08-10T17:54:31.693Z,74498.88
2022-08-10T17:56:06.181Z,74494.94
2022-08-10T17:57:41.367Z,74496.91
2022-08-10T17:59:16.908Z,74496.91
2022-08-10T18:00:51.556Z,74498.88
2022-08-10T18:02:28.512Z,74516.66
2022-08-10T18:04:04.405Z,74520.63
2022-08-10T18:05:38.012Z,74524.56
2022-08-10T18:07:13.592Z,74526.53
2022-08-10T18:08:53.255Z,74524.56
2022-08-10T18:10:32.230Z,74526.53
2022-08-10T18:12:18.033Z,74528.53
2022-08-10T18:13:57.428Z,74556.19
2022-08-10T18:15:32.898Z,74570.03
2022-08-10T18:17:11.768Z,74579.91
2022-08-10T18:18:44.938Z,74579.91
2022-08-10T18:20:19.928Z,74583.88
2022-08-10T18:21:56.979Z,74572.00
2022-08-10T18:23:33.962Z,74579.91
2022-08-10T18:25:17.117Z,74572.00
2022-08-10T18:26:52.238Z,74568.06
2022-08-10T18:28:30.469Z,74573.97
2022-08-10T18:30:07.393Z,74572.00
2022-08-10T18:31:45.376Z,74577.94
2022-08-10T18:33:21.612Z,74583.88
2022-08-10T18:34:59.719Z,74581.88
2022-08-10T18:36:38.494Z,74587.81
2022-08-10T18:38:15.348Z,74587.81
2022-08-10T18:39:51.028Z,74595.72
2022-08-10T18:41:34.684Z,74603.63
2022-08-10T18:44:05.903Z,74607.59
2022-08-10T18:45:15.529Z,74611.53
2022-08-10T18:47:00.281Z,74615.47
2022-08-10T18:48:42.977Z,74639.19
2022-08-10T18:50:20.121Z,74631.28
2022-08-10T18:52:08.134Z,74666.88
2022-08-10T18:53:51.394Z,74706.41
2022-08-10T18:55:27.324Z,74710.34
2022-08-10T18:57:18.105Z,74720.25
2022-08-10T18:59:03.080Z,74734.06
2022-08-10T19:00:46.225Z,74738.03
2022-08-10T19:02:40.363Z,74741.97
2022-08-10T19:04:44.944Z,74745.94
2022-08-10T19:06:24.864Z,74753.84
2022-08-10T19:08:14.864Z,74757.78
2022-08-10T19:10:39.496Z,74745.94
2022-08-10T19:12:29.898Z,74736.06
2022-08-10T19:14:16.862Z,74730.13
2022-08-10T19:15:59.519Z,74722.22
2022-08-10T19:18:04.001Z,74730.13
2022-08-10T19:19:56.144Z,74734.06
2022-08-10T19:21:42.290Z,74741.97
2022-08-10T19:23:37.012Z,74751.84
2022-08-10T19:26:37.831Z,74765.69
2022-08-10T19:27:35.497Z,74789.41
2022-08-10T19:30:08.254Z,74793.38
2022-08-10T19:31:44.433Z,74817.09
2022-08-10T19:33:30.711Z,74819.06
2022-08-10T19:35:04.082Z,74821.03
2022-08-10T19:37:07.760Z,74832.91
2022-08-10T19:38:50.448Z,74828.94
2022-08-10T19:40:47.707Z,74838.81
2022-08-10T19:42:47.515Z,74844.75
2022-08-10T19:44:34.020Z,74840.81
2022-08-10T19:46:10.466Z,74836.84
2022-08-10T19:47:52.542Z,74826.97
2022-08-10T19:49:50.399Z,74830.91
2022-08-10T19:51:28.064Z,74832.91
2022-08-10T19:53:04.512Z,74828.94
2022-08-10T19:54:55.267Z,74832.91
2022-08-10T19:56:36.597Z,74825.00
2022-08-10T19:58:24.867Z,74844.75
2022-08-10T20:00:19.781Z,74834.88
2022-08-10T20:01:59.771Z,74836.84
2022-08-10T20:04:05.145Z,74834.88
2022-08-10T20:06:19.424Z,74838.81
2022-08-10T20:08:03.795Z,74844.75